New Century, Kansas
Current Conditions -  °F | °C
As of 3:53 PM on Monday 20 Oct 2014 (Local Time) from KIXD Reporting Station
Clear Clear  
Wind Chill: 23°   Ceiling: Unl
Heat Index: 23°   Visibility: 10mi
Dew Point:   Wind: 7mph
Humidity: 39%   Direction: 20°NNE
Pressure: 30.03"   Gusts: NA
Location:  38.81°N, 94.93°W
Report Text: KIXD 202053Z 02006KT 10SM CLR 23/08 A3003 RMK AO2 SLP164 T02280083 56010
Loading
Personal Weather Stations






























Interactive Weather Map
Tropical Storm Tracking
New forecast layout! Learn more

10-Day Weather Forecast

Advertisements
Track Severe Weather on mobile